PrinceSS Superior — CZ4348 — position and weather

sailwx.info

Track history (hours):
 
Tides and Currents Weather Stations Pressure Air Temp Water Temp Dewpoint Dewpoint Depression Visibility Wind Speed Wind Dir Waves Ship Positions

PrinceSS Superior

Last reported at 2017-Oct-18 20:01 UTC. Time now 2017-Oct-18 20:17 UTC.
Position N 49°08' W 123°25'.

Length 117 m; draft 14.9 m.

Type: Ship. MMSI: 316003289.

Date/timePositionNaut miles runAvg speedWind from/ knotsBaromVisibWave heightAir tempDewpointWater temp
2017-Oct-18 20:01N 49°08' W 123°25'611.1
2017-Oct-18 19:30N 49°07' W 123°17'714.9
2017-Oct-18 19:00N 49°07' W 123°05'3 5.0
2017-Oct-18 18:31N 49°09' W 123°02'0 0.0
2017-Oct-18 18:01N 49°09' W 123°02'0 0.0
2017-Oct-18 17:30N 49°09' W 123°02'0 0.0
2017-Oct-18 17:01N 49°09' W 123°02'0 0.0
2017-Oct-18 16:31N 49°09' W 123°02'0 0.0
2017-Oct-18 16:01N 49°09' W 123°02'0 0.0
2017-Oct-18 15:31N 49°09' W 123°02'0 0.0
2017-Oct-18 15:01N 49°09' W 123°02'5 4.9
2017-Oct-18 14:01N 49°06' W 123°09'4 8.9
2017-Oct-18 13:30N 49°07' W 123°16'4 8.4
2017-Oct-18 13:00N 49°04' W 123°19'510.2
2017-Oct-18 12:31N 48°59' W 123°17'510.8
2017-Oct-18 12:00N 48°54' W 123°18'4 8.4
2017-Oct-18 11:30N 48°50' W 123°21'611.1
2017-Oct-18 10:58N 48°44' W 123°23'3 1.4
2017-Oct-18 09:04N 48°42' W 123°24'1 8.7
2017-Oct-18 08:59N 48°42' W 123°23'5 9.7
2017-Oct-18 08:30N 48°46' W 123°21'611.6
2017-Oct-18 08:01N 48°52' W 123°20'5 8.9
2017-Oct-18 07:30N 48°56' W 123°19'612.3
2017-Oct-18 07:01N 49°02' W 123°21'714.5
2017-Oct-18 06:30N 49°08' W 123°14'714.9
2017-Oct-18 06:01N 49°09' W 123°03'1 1.0
2017-Oct-18 05:31N 49°09' W 123°02'0 0.0
2017-Oct-18 05:01N 49°09' W 123°02'0 0.0
2017-Oct-18 04:31N 49°09' W 123°02'0 0.0
2017-Oct-18 04:01N 49°09' W 123°02'3 5.8
2017-Oct-18 03:31N 49°07' W 123°06'5 9.6
2017-Oct-18 03:01N 49°08' W 123°13'5 9.8
2017-Oct-18 02:31N 49°06' W 123°20'611.1
2017-Oct-18 02:01N 49°08' W 123°28'510.6
2017-Oct-18 01:30N 49°10' W 123°36'510.3
2017-Oct-18 01:00N 49°12' W 123°43'510.1
2017-Oct-18 00:31N 49°13' W 123°50'4 8.2
2017-Oct-18 00:00N 49°09' W 123°52'0 0.4
2017-Oct-17 23:29N 49°09' W 123°52'0 0.0
2017-Oct-17 22:58N 49°09' W 123°52'0 0.0
2017-Oct-17 22:30N 49°09' W 123°52'0 0.4
2017-Oct-17 22:00N 49°09' W 123°52'4 7.6
2017-Oct-17 21:31N 49°13' W 123°51'5 9.4
2017-Oct-17 20:58N 49°13' W 123°44'510.7
2017-Oct-17 20:30N 49°11' W 123°36'611.3
2017-Oct-17 20:00N 49°09' W 123°28'612.2
2017-Oct-17 19:30N 49°07' W 123°20'713.3
2017-Oct-17 19:00N 49°07' W 123°10'510.9
2017-Oct-17 18:30N 49°09' W 123°02'0 0.0
2017-Oct-17 18:00N 49°09' W 123°02'0 0.0
2017-Oct-17 17:30N 49°09' W 123°02'0 0.0
2017-Oct-17 17:00N 49°09' W 123°02'0 0.0
2017-Oct-17 16:30N 49°09' W 123°02'0 0.0
2017-Oct-17 16:00N 49°09' W 123°02'0 0.0
2017-Oct-17 15:30N 49°09' W 123°02'0 0.0
2017-Oct-17 15:00N 49°09' W 123°02'0 0.9
2017-Oct-17 14:31N 49°08' W 123°03'5 9.2
2017-Oct-17 14:00N 49°07' W 123°09'5 9.3
2017-Oct-17 13:30N 49°07' W 123°16'4 8.9
2017-Oct-17 13:00N 49°03' W 123°19'510.9
2017-Oct-17 12:30N 48°58' W 123°17'611.6
2017-Oct-17 12:00N 48°52' W 123°18'4 8.8
2017-Oct-17 11:30N 48°48' W 123°20'7 2.7
2017-Oct-17 09:04N 48°42' W 123°24'1 8.8
2017-Oct-17 09:00N 48°42' W 123°23'612.8
2017-Oct-17 08:30N 48°48' W 123°21'5 9.8
2017-Oct-17 08:00N 48°52' W 123°18'713.5
2017-Oct-17 07:31N 48°59' W 123°20'713.0
2017-Oct-17 07:00N 49°05' W 123°20'611.0
2017-Oct-17 06:31N 49°07' W 123°12'612.8
2017-Oct-17 06:00N 49°09' W 123°02'0 0.3
2017-Oct-17 05:30N 49°09' W 123°02'0 0.0
2017-Oct-17 05:00N 49°09' W 123°02'0 0.0
2017-Oct-17 04:30N 49°09' W 123°02'0 0.0
2017-Oct-17 04:00N 49°09' W 123°02'2 3.7
2017-Oct-17 03:30N 49°07' W 123°04'510.2
2017-Oct-17 03:01N 49°07' W 123°12'611.0
2017-Oct-17 02:30N 49°06' W 123°20'510.5
2017-Oct-17 02:00N 49°08' W 123°28'510.7
2017-Oct-17 01:30N 49°10' W 123°35'510.5
2017-Oct-17 01:00N 49°12' W 123°43'510.2
2017-Oct-17 00:30N 49°13' W 123°51'4 8.3
2017-Oct-17 00:00N 49°09' W 123°52'0 0.0
2017-Oct-16 23:22N 49°09' W 123°52'0 0.0
2017-Oct-16 22:49N 49°09' W 123°52'0 0.0
2017-Oct-16 22:29N 49°09' W 123°52'2 5.3
2017-Oct-16 22:00N 49°11' W 123°53'5 9.6
2017-Oct-16 21:30N 49°14' W 123°47'611.5
2017-Oct-16 21:00N 49°12' W 123°38'611.3
2017-Oct-16 20:30N 49°10' W 123°30'611.3
2017-Oct-16 20:00N 49°07' W 123°23'611.3
2017-Oct-16 19:30N 49°08' W 123°14'612.9
2017-Oct-16 19:00N 49°08' W 123°04'2 3.7
2017-Oct-16 18:30N 49°09' W 123°02'0 0.0
2017-Oct-16 18:00N 49°09' W 123°02'0 0.0
2017-Oct-16 17:30N 49°09' W 123°02'0 0.1
2017-Oct-16 17:00N 49°09' W 123°02'0 0.0
2017-Oct-16 16:30N 49°09' W 123°02'0 0.0
2017-Oct-16 16:00N 49°09' W 123°02'0 0.0
2017-Oct-16 15:30N 49°09' W 123°02'0 0.0
2017-Oct-16 15:00N 49°09' W 123°02'0 0.0
2017-Oct-16 14:30N 49°09' W 123°02'0 0.0
2017-Oct-16 13:30N 49°09' W 123°02'0 0.0
2017-Oct-16 13:00N 49°09' W 123°02'0 0.0
2017-Oct-16 12:30N 49°09' W 123°02'0 0.0
2017-Oct-16 12:00N 49°09' W 123°02'0 0.0
2017-Oct-16 11:30N 49°09' W 123°02'0 0.0
2017-Oct-16 11:00N 49°09' W 123°02'0 0.0
2017-Oct-16 10:30N 49°09' W 123°02'0 0.0
2017-Oct-16 10:00N 49°09' W 123°02'0 0.0
2017-Oct-16 09:30N 49°09' W 123°02'0 0.0
2017-Oct-16 09:00N 49°09' W 123°02'0 0.0
2017-Oct-16 08:30N 49°09' W 123°02'0 0.0
2017-Oct-16 08:00N 49°09' W 123°02'0 0.0
2017-Oct-16 07:30N 49°09' W 123°02'0 0.0
2017-Oct-16 07:00N 49°09' W 123°02'0 0.0
2017-Oct-16 06:30N 49°09' W 123°02'0 0.0
2017-Oct-16 06:00N 49°09' W 123°02'0 0.0
2017-Oct-16 05:30N 49°09' W 123°02'0 0.0
2017-Oct-16 05:00N 49°09' W 123°02'0 0.0
2017-Oct-16 04:30N 49°09' W 123°02'0 0.0
2017-Oct-16 04:00N 49°09' W 123°02'0 0.0
2017-Oct-16 03:30N 49°09' W 123°02'0 0.0
2017-Oct-16 03:00N 49°09' W 123°02'0 0.0
2017-Oct-16 02:30N 49°09' W 123°02'0 0.0
2017-Oct-16 02:00N 49°09' W 123°02'0 0.0
2017-Oct-16 01:30N 49°09' W 123°02'0 0.0
2017-Oct-16 01:00N 49°09' W 123°02'0 0.0
2017-Oct-16 00:30N 49°09' W 123°02'0 0.0
2017-Oct-16 00:00N 49°09' W 123°02'0 0.0
2017-Oct-15 23:30N 49°09' W 123°02'0 0.0
2017-Oct-15 23:00N 49°09' W 123°02'0 0.0
2017-Oct-15 22:30N 49°09' W 123°02'0 0.0
2017-Oct-15 22:00N 49°09' W 123°02'0 0.0
2017-Oct-15 21:30N 49°09' W 123°02'0 0.0
2017-Oct-15 21:00N 49°09' W 123°02'0 0.0
2017-Oct-15 20:30N 49°09' W 123°02'0 0.0
2017-Oct-15 20:00N 49°09' W 123°02'0 0.0
2017-Oct-15 19:30N 49°09' W 123°02'0 0.0
2017-Oct-15 19:00N 49°09' W 123°02'0 0.0
2017-Oct-15 18:30N 49°09' W 123°02'0 0.0
2017-Oct-15 18:00N 49°09' W 123°02'0 0.0
2017-Oct-15 17:30N 49°09' W 123°02'0 0.0
2017-Oct-15 17:00N 49°09' W 123°02'0 0.0
2017-Oct-15 16:30N 49°09' W 123°02'0 0.0
2017-Oct-15 16:00N 49°09' W 123°02'0 0.0
2017-Oct-15 15:30N 49°09' W 123°02'0 0.0
2017-Oct-15 15:00N 49°09' W 123°02'0 0.0
2017-Oct-15 14:00N 49°09' W 123°02'0 0.0
2017-Oct-15 13:30N 49°09' W 123°02'0 0.0
2017-Oct-15 13:00N 49°09' W 123°02'0 0.0
2017-Oct-15 12:30N 49°09' W 123°02'0 0.0
2017-Oct-15 12:00N 49°09' W 123°02'0 0.0
2017-Oct-15 11:30N 49°09' W 123°02'0 0.0
2017-Oct-15 11:00N 49°09' W 123°02'0 0.0
2017-Oct-15 10:30N 49°09' W 123°02'0 0.0
2017-Oct-15 10:00N 49°09' W 123°02'0 0.0
2017-Oct-15 09:30N 49°09' W 123°02'0 0.0
2017-Oct-15 09:00N 49°09' W 123°02'0 0.0
2017-Oct-15 08:30N 49°09' W 123°02'0 0.0
2017-Oct-15 08:00N 49°09' W 123°02'0 0.0
2017-Oct-15 07:30N 49°09' W 123°02'0 0.0
2017-Oct-15 07:00N 49°09' W 123°02'0 0.0
2017-Oct-15 06:30N 49°09' W 123°02'0 0.0
2017-Oct-15 06:00N 49°09' W 123°02'0 0.0
2017-Oct-15 05:30N 49°09' W 123°02'0 0.0
2017-Oct-15 05:00N 49°09' W 123°02'0 0.0
2017-Oct-15 04:30N 49°09' W 123°02'0 0.0
2017-Oct-15 04:00N 49°09' W 123°02'0 0.0
2017-Oct-15 03:30N 49°09' W 123°02'0 0.0
2017-Oct-15 03:00N 49°09' W 123°02'0 0.0
2017-Oct-15 02:30N 49°09' W 123°02'0 0.0
2017-Oct-15 02:00N 49°09' W 123°02'0 0.0
2017-Oct-15 01:30N 49°09' W 123°02'0 0.0
2017-Oct-15 01:00N 49°09' W 123°02'0 0.0
2017-Oct-15 00:30N 49°09' W 123°02'0 0.0
2017-Oct-15 00:00N 49°09' W 123°02'0 0.0
2017-Oct-14 23:30N 49°09' W 123°02'0 0.0
2017-Oct-14 23:00N 49°09' W 123°02'0 0.0
2017-Oct-14 22:30N 49°09' W 123°02'0 0.0
2017-Oct-14 22:00N 49°09' W 123°02'0 0.0
2017-Oct-14 21:30N 49°09' W 123°02'0 0.0
2017-Oct-14 21:00N 49°09' W 123°02'0 0.0
2017-Oct-14 20:30N 49°09' W 123°02'0 0.0
2017-Oct-14 20:00N 49°09' W 123°02'0 0.0
2017-Oct-14 19:30N 49°09' W 123°02'0 0.0
2017-Oct-14 19:00N 49°09' W 123°02'0 0.0
2017-Oct-14 18:30N 49°09' W 123°02'0 0.0
2017-Oct-14 18:00N 49°09' W 123°02'0 0.0
2017-Oct-14 17:30N 49°09' W 123°02'0 0.0
2017-Oct-14 17:00N 49°09' W 123°02'0 0.0
2017-Oct-14 16:30N 49°09' W 123°02'0 0.0
2017-Oct-14 16:00N 49°09' W 123°02'0 0.1
2017-Oct-14 15:30N 49°09' W 123°02'0 0.0
2017-Oct-14 15:00N 49°09' W 123°02'1 1.5
2017-Oct-14 14:31N 49°08' W 123°03'4 8.6
2017-Oct-14 14:00N 49°07' W 123°09'4 8.1
2017-Oct-14 13:30N 49°08' W 123°15'4 8.2
2017-Oct-14 13:00N 49°05' W 123°20'510.2
2017-Oct-14 12:30N 48°60' W 123°18'510.2
2017-Oct-14 12:00N 48°55' W 123°17'5 9.5
2017-Oct-14 11:30N 48°51' W 123°21'612.3
2017-Oct-14 11:00N 48°44' W 123°21'4 2.1
2017-Oct-14 09:09N 48°41' W 123°24'1 6.2
2017-Oct-14 09:00N 48°42' W 123°23'611.9
2017-Oct-14 08:28N 48°48' W 123°21'5 9.8
2017-Oct-14 08:01N 48°52' W 123°19'713.3
2017-Oct-14 07:30N 48°59' W 123°19'713.1
2017-Oct-14 07:00N 49°05' W 123°20'612.3
2017-Oct-14 06:31N 49°07' W 123°11'611.7
2017-Oct-14 06:00N 49°09' W 123°02'0 0.2
2017-Oct-14 05:30N 49°09' W 123°02'0 0.0
2017-Oct-14 05:00N 49°09' W 123°02'0 0.0
2017-Oct-14 04:30N 49°09' W 123°02'0 0.0
2017-Oct-14 04:00N 49°09' W 123°02'3 5.4
2017-Oct-14 03:30N 49°07' W 123°05'3 6.8
2017-Oct-14 03:00N 49°07' W 123°11'3 6.5
2017-Oct-14 02:30N 49°07' W 123°16'4 7.4
2017-Oct-14 02:00N 49°06' W 123°21'5 9.4
2017-Oct-14 01:30N 49°07' W 123°27'6 9.3
2017-Oct-14 00:50N 49°10' W 123°36'5 9.6
2017-Oct-14 00:20N 49°12' W 123°43'4 9.3
2017-Oct-13 23:57N 49°13' W 123°48'4 8.0
2017-Oct-13 23:30N 49°11' W 123°53'2 4.3
2017-Oct-13 22:58N 49°09' W 123°52'0 0.0
2017-Oct-13 22:27N 49°09' W 123°52'0 0.0
2017-Oct-13 21:43N 49°09' W 123°52'1 5.8
2017-Oct-13 21:31N 49°10' W 123°53'510.4
2017-Oct-13 21:01N 49°13' W 123°47'713.1
2017-Oct-13 20:30N 49°11' W 123°37'713.6
2017-Oct-13 20:00N 49°08' W 123°27'713.2
2017-Oct-13 19:30N 49°06' W 123°18'5 9.9
2017-Oct-13 19:00N 49°07' W 123°10'510.3
2017-Oct-13 18:30N 49°09' W 123°03'1 1.2
2017-Oct-13 18:00N 49°09' W 123°02'0 0.0
2017-Oct-13 17:30N 49°09' W 123°02'0 0.0
2017-Oct-13 17:00N 49°09' W 123°02'0 0.0
2017-Oct-13 16:30N 49°09' W 123°02'0 0.0
2017-Oct-13 16:00N 49°09' W 123°02'0 0.0
2017-Oct-13 15:30N 49°09' W 123°02'0 0.0
2017-Oct-13 15:00N 49°09' W 123°02'0 0.2
2017-Oct-13 14:30N 49°09' W 123°02'5 9.8
2017-Oct-13 14:00N 49°07' W 123°09'5 9.7
2017-Oct-13 13:30N 49°07' W 123°16'5 9.8
2017-Oct-13 13:00N 49°02' W 123°19'612.2
2017-Oct-13 12:30N 48°56' W 123°18'510.4
2017-Oct-13 12:00N 48°52' W 123°21'4 7.1
2017-Oct-13 11:30N 48°48' W 123°21'510.3
2017-Oct-13 11:00N 48°43' W 123°21'3 1.4
2017-Oct-13 09:03N 48°41' W 123°24'1 4.1
2017-Oct-13 08:55N 48°42' W 123°24'511.3
2017-Oct-13 08:29N 48°46' W 123°21'611.7
2017-Oct-13 08:00N 48°52' W 123°19'713.5
2017-Oct-13 07:30N 48°58' W 123°19'713.6
2017-Oct-13 07:01N 49°05' W 123°19'611.5
2017-Oct-13 06:30N 49°07' W 123°11'611.8
2017-Oct-13 06:00N 49°09' W 123°02'0 0.4
2017-Oct-13 05:31N 49°09' W 123°02'0 0.0
2017-Oct-13 05:00N 49°09' W 123°02'0 0.0
2017-Oct-13 04:30N 49°09' W 123°02'0 0.0
2017-Oct-13 04:01N 49°09' W 123°02'0 1.0
2017-Oct-13 03:30N 49°08' W 123°03'5 9.9
2017-Oct-13 03:01N 49°07' W 123°10'4 8.6
2017-Oct-13 02:31N 49°07' W 123°16'5 9.7
2017-Oct-13 02:01N 49°06' W 123°24'611.4
2017-Oct-13 01:31N 49°09' W 123°32'611.2
2017-Oct-13 01:00N 49°11' W 123°40'611.5
2017-Oct-13 00:30N 49°13' W 123°48'4 8.7
2017-Oct-13 00:00N 49°10' W 123°53'1 0.5
2017-Oct-12 21:51N 49°09' W 123°52'3 8.6
2017-Oct-12 21:30N 49°12' W 123°53'712.9
2017-Oct-12 21:00N 49°12' W 123°43'714.1
2017-Oct-12 20:30N 49°10' W 123°33'713.9
2017-Oct-12 20:00N 49°07' W 123°23'612.1
2017-Oct-12 19:30N 49°08' W 123°14'611.4
2017-Oct-12 19:01N 49°07' W 123°05'3 5.4
2017-Oct-12 18:31N 49°09' W 123°02'0 0.0
2017-Oct-12 18:01N 49°09' W 123°02'0 0.0
2017-Oct-12 17:31N 49°09' W 123°02'0 0.0
2017-Oct-12 17:01N 49°09' W 123°02'0 0.0
2017-Oct-12 16:31N 49°09' W 123°02'0 0.0
2017-Oct-12 16:01N 49°09' W 123°02'0 0.0
2017-Oct-12 15:31N 49°09' W 123°02'0 0.0
2017-Oct-12 15:01N 49°09' W 123°02'0 0.7
2017-Oct-12 14:30N 49°09' W 123°03'4 7.4
2017-Oct-12 14:01N 49°07' W 123°07'5 9.5
2017-Oct-12 13:31N 49°08' W 123°14'5 9.2
2017-Oct-12 13:00N 49°04' W 123°20'510.5
2017-Oct-12 12:31N 48°60' W 123°17'611.1
2017-Oct-12 12:00N 48°54' W 123°18'510.1
2017-Oct-12 11:30N 48°49' W 123°20'611.8
2017-Oct-12 11:00N 48°44' W 123°21'3 1.5
2017-Oct-12 09:02N 48°42' W 123°24'0 8.6
2017-Oct-12 09:00N 48°42' W 123°24'611.4
2017-Oct-12 08:30N 48°47' W 123°21'611.2
2017-Oct-12 08:01N 48°52' W 123°18'612.5
2017-Oct-12 07:31N 48°58' W 123°19'611.8
2017-Oct-12 07:00N 49°04' W 123°21'612.6
2017-Oct-12 06:30N 49°08' W 123°12'612.4
2017-Oct-12 06:01N 49°08' W 123°03'1 1.2
2017-Oct-12 05:30N 49°09' W 123°02'0 0.0
2017-Oct-12 05:00N 49°09' W 123°02'0 0.0
2017-Oct-12 04:30N 49°09' W 123°02'0 0.0
2017-Oct-12 04:00N 49°09' W 123°02'2 3.3
2017-Oct-12 03:30N 49°08' W 123°04'4 8.1
2017-Oct-12 03:00N 49°07' W 123°10'4 7.7
2017-Oct-12 02:30N 49°07' W 123°16'4 8.7
2017-Oct-12 02:00N 49°06' W 123°22'510.5
2017-Oct-12 01:30N 49°08' W 123°30'510.1
2017-Oct-12 01:00N 49°10' W 123°37'510.0
2017-Oct-12 00:30N 49°12' W 123°44'5 9.4
2017-Oct-12 00:00N 49°12' W 123°51'4 7.3
2017-Oct-11 23:30N 49°09' W 123°52'0 0.1
2017-Oct-11 22:06N 49°09' W 123°52'0 0.0
2017-Oct-11 21:58N 49°09' W 123°52'4 9.2
2017-Oct-11 21:30N 49°13' W 123°51'612.3
2017-Oct-11 21:00N 49°12' W 123°42'713.1
2017-Oct-11 20:30N 49°10' W 123°32'712.7
2017-Oct-11 20:00N 49°08' W 123°23'511.1
2017-Oct-11 19:30N 49°08' W 123°15'611.2
2017-Oct-11 19:00N 49°07' W 123°06'3 6.6
2017-Oct-11 18:30N 49°09' W 123°02'0 0.0
2017-Oct-11 18:00N 49°09' W 123°02'0 0.0
2017-Oct-11 17:30N 49°09' W 123°02'0 0.0
2017-Oct-11 17:00N 49°09' W 123°02'33 1.9
2017-Oct-11 00:00N 49°09' W 123°52'1 0.4
2017-Oct-10 22:18N 49°09' W 123°52'1 2.7
2017-Oct-10 22:00N 49°09' W 123°53'510.7
2017-Oct-10 21:30N 49°14' W 123°47'612.7
2017-Oct-10 21:00N 49°11' W 123°38'612.5
2017-Oct-10 20:30N 49°09' W 123°29'612.2
2017-Oct-10 20:00N 49°07' W 123°21'611.6
2017-Oct-10 19:30N 49°07' W 123°12'510.1
2017-Oct-10 19:00N 49°07' W 123°04'2 3.7
2017-Oct-10 18:30N 49°09' W 123°02'0 0.0
2017-Oct-10 18:00N 49°09' W 123°02'0 0.0
2017-Oct-10 17:30N 49°09' W 123°02'0 0.0
2017-Oct-10 17:00N 49°09' W 123°02'0 0.1
2017-Oct-10 16:29N 49°09' W 123°02'0 0.0
2017-Oct-10 16:00N 49°09' W 123°02'0 0.0
2017-Oct-10 15:30N 49°09' W 123°02'0 0.0
2017-Oct-10 15:00N 49°09' W 123°02'0 0.0
2017-Oct-10 14:00N 49°09' W 123°02'0 0.0
2017-Oct-10 13:30N 49°09' W 123°02'0 0.0
2017-Oct-10 13:00N 49°09' W 123°02'0 0.0
2017-Oct-10 12:30N 49°09' W 123°02'0 0.0
2017-Oct-10 12:00N 49°09' W 123°02'0 0.0
2017-Oct-10 11:30N 49°09' W 123°02'0 0.0
2017-Oct-10 11:00N 49°09' W 123°02'0 0.0
2017-Oct-10 10:30N 49°09' W 123°02'0 0.0
2017-Oct-10 10:00N 49°09' W 123°02'0 0.0
2017-Oct-10 09:30N 49°09' W 123°02'0 0.0
2017-Oct-10 09:00N 49°09' W 123°02'0 0.0
2017-Oct-10 08:30N 49°09' W 123°02'0 0.0
2017-Oct-10 08:00N 49°09' W 123°02'0 0.0
2017-Oct-10 07:30N 49°09' W 123°02'0 0.0
2017-Oct-10 07:00N 49°09' W 123°02'0 0.0
2017-Oct-10 06:30N 49°09' W 123°02'0 0.0
2017-Oct-10 06:00N 49°09' W 123°02'0 0.0
2017-Oct-10 05:30N 49°09' W 123°02'0 0.0
2017-Oct-10 05:00N 49°09' W 123°02'0 0.0
2017-Oct-10 04:30N 49°09' W 123°02'0 0.0
2017-Oct-10 04:00N 49°09' W 123°02'0 0.0
2017-Oct-10 03:30N 49°09' W 123°02'0 0.0
2017-Oct-10 03:00N 49°09' W 123°02'0 0.0
2017-Oct-10 02:30N 49°09' W 123°02'0 0.0
2017-Oct-10 02:00N 49°09' W 123°02'0 0.0
2017-Oct-10 01:30N 49°09' W 123°02'0 0.0
2017-Oct-10 01:00N 49°09' W 123°02'0 0.0
2017-Oct-10 00:30N 49°09' W 123°02'0 0.0
2017-Oct-10 00:00N 49°09' W 123°02'0 0.0
2017-Oct-09 23:30N 49°09' W 123°02'0 0.0
2017-Oct-09 23:00N 49°09' W 123°02'0 0.0
2017-Oct-09 22:30N 49°09' W 123°02'0 0.0
2017-Oct-09 22:00N 49°09' W 123°02'0 0.0
2017-Oct-09 21:30N 49°09' W 123°02'0 0.0
2017-Oct-09 21:00N 49°09' W 123°02'0 0.0
2017-Oct-09 20:30N 49°09' W 123°02'0 0.0
2017-Oct-09 20:00N 49°09' W 123°02'0 0.0
2017-Oct-09 19:30N 49°09' W 123°02'0 0.0
2017-Oct-09 19:00N 49°09' W 123°02'0 0.0
2017-Oct-09 18:30N 49°09' W 123°02'0 0.0
2017-Oct-09 18:00N 49°09' W 123°02'0 0.0
2017-Oct-09 17:30N 49°09' W 123°02'0 0.0
2017-Oct-09 17:00N 49°09' W 123°02'0 0.0
2017-Oct-09 16:27N 49°09' W 123°02'0 0.0
2017-Oct-09 16:00N 49°09' W 123°02'0 0.0
2017-Oct-09 15:30N 49°09' W 123°02'0 0.0
2017-Oct-09 15:00N 49°09' W 123°02'0 0.0
2017-Oct-09 14:30N 49°09' W 123°02'0 0.0
2017-Oct-09 14:00N 49°09' W 123°02'0 0.0
2017-Oct-09 13:30N 49°09' W 123°02'0 0.0
2017-Oct-09 13:00N 49°09' W 123°02'0 0.0
2017-Oct-09 12:30N 49°09' W 123°02'0 0.0
2017-Oct-09 12:00N 49°09' W 123°02'0 0.0
2017-Oct-09 11:30N 49°09' W 123°02'0 0.0
2017-Oct-09 11:00N 49°09' W 123°02'0 0.0
2017-Oct-09 10:30N 49°09' W 123°02'0 0.0
2017-Oct-09 10:00N 49°09' W 123°02'0 0.0
2017-Oct-09 09:30N 49°09' W 123°02'0 0.0
2017-Oct-09 09:00N 49°09' W 123°02'0 0.0
2017-Oct-09 08:30N 49°09' W 123°02'0 0.0
2017-Oct-09 08:00N 49°09' W 123°02'0 0.0
2017-Oct-09 07:30N 49°09' W 123°02'0 0.0
2017-Oct-09 07:00N 49°09' W 123°02'0 0.0
2017-Oct-09 06:30N 49°09' W 123°02'0 0.0
2017-Oct-09 06:00N 49°09' W 123°02'0 0.0
2017-Oct-09 05:30N 49°09' W 123°02'0 0.0
2017-Oct-09 05:00N 49°09' W 123°02'0 0.0
2017-Oct-09 04:30N 49°09' W 123°02'0 0.0
2017-Oct-09 04:00N 49°09' W 123°02'0 0.0
2017-Oct-09 03:30N 49°09' W 123°02'0 0.0
2017-Oct-09 03:00N 49°09' W 123°02'0 0.0
2017-Oct-09 02:30N 49°09' W 123°02'0 0.0
2017-Oct-09 02:00N 49°09' W 123°02'0 0.0
2017-Oct-09 01:30N 49°09' W 123°02'0 0.0
2017-Oct-09 01:00N 49°09' W 123°02'0 0.0
2017-Oct-09 00:30N 49°09' W 123°02'0 0.0
2017-Oct-09 00:00N 49°09' W 123°02'0 0.0
2017-Oct-08 23:30N 49°09' W 123°02'0 0.0
2017-Oct-08 23:00N 49°09' W 123°02'0 0.0
2017-Oct-08 22:30N 49°09' W 123°02'0 0.0
2017-Oct-08 22:00N 49°09' W 123°02'0 0.0
2017-Oct-08 21:30N 49°09' W 123°02'0 0.0
2017-Oct-08 21:00N 49°09' W 123°02'0 0.0
2017-Oct-08 20:30N 49°09' W 123°02'  
Track history (hours):
 
Tides and Currents Weather Stations Pressure Air Temp Water Temp Dewpoint Dewpoint Depression Visibility Wind Speed Wind Dir Waves Ship Positions

PrinceSS Superior

Last reported at 2017-Oct-18 20:01 UTC. Time now 2017-Oct-18 20:17 UTC.
Position N 49°08' W 123°25'.

Length 117 m; draft 14.9 m.

Type: Ship. MMSI: 316003289.

Date/timePositionNaut miles runAvg speedWind from/ knotsBaromVisibWave heightAir tempDewpointWater temp
2017-Oct-18 20:01N 49°08' W 123°25'611.1
2017-Oct-18 19:30N 49°07' W 123°17'714.9
2017-Oct-18 19:00N 49°07' W 123°05'3 5.0
2017-Oct-18 18:31N 49°09' W 123°02'0 0.0
2017-Oct-18 18:01N 49°09' W 123°02'0 0.0
2017-Oct-18 17:30N 49°09' W 123°02'0 0.0
2017-Oct-18 17:01N 49°09' W 123°02'0 0.0
2017-Oct-18 16:31N 49°09' W 123°02'0 0.0
2017-Oct-18 16:01N 49°09' W 123°02'0 0.0
2017-Oct-18 15:31N 49°09' W 123°02'0 0.0
2017-Oct-18 15:01N 49°09' W 123°02'5 4.9
2017-Oct-18 14:01N 49°06' W 123°09'4 8.9
2017-Oct-18 13:30N 49°07' W 123°16'4 8.4
2017-Oct-18 13:00N 49°04' W 123°19'510.2
2017-Oct-18 12:31N 48°59' W 123°17'510.8
2017-Oct-18 12:00N 48°54' W 123°18'4 8.4
2017-Oct-18 11:30N 48°50' W 123°21'611.1
2017-Oct-18 10:58N 48°44' W 123°23'3 1.4
2017-Oct-18 09:04N 48°42' W 123°24'1 8.7
2017-Oct-18 08:59N 48°42' W 123°23'5 9.7
2017-Oct-18 08:30N 48°46' W 123°21'611.6
2017-Oct-18 08:01N 48°52' W 123°20'5 8.9
2017-Oct-18 07:30N 48°56' W 123°19'612.3
2017-Oct-18 07:01N 49°02' W 123°21'714.5
2017-Oct-18 06:30N 49°08' W 123°14'714.9
2017-Oct-18 06:01N 49°09' W 123°03'1 1.0
2017-Oct-18 05:31N 49°09' W 123°02'0 0.0
2017-Oct-18 05:01N 49°09' W 123°02'0 0.0
2017-Oct-18 04:31N 49°09' W 123°02'0 0.0
2017-Oct-18 04:01N 49°09' W 123°02'3 5.8
2017-Oct-18 03:31N 49°07' W 123°06'5 9.6
2017-Oct-18 03:01N 49°08' W 123°13'5 9.8
2017-Oct-18 02:31N 49°06' W 123°20'611.1
2017-Oct-18 02:01N 49°08' W 123°28'510.6
2017-Oct-18 01:30N 49°10' W 123°36'510.3
2017-Oct-18 01:00N 49°12' W 123°43'510.1
2017-Oct-18 00:31N 49°13' W 123°50'4 8.2
2017-Oct-18 00:00N 49°09' W 123°52'0 0.4
2017-Oct-17 23:29N 49°09' W 123°52'0 0.0
2017-Oct-17 22:58N 49°09' W 123°52'0 0.0
2017-Oct-17 22:30N 49°09' W 123°52'0 0.4
2017-Oct-17 22:00N 49°09' W 123°52'4 7.6
2017-Oct-17 21:31N 49°13' W 123°51'5 9.4
2017-Oct-17 20:58N 49°13' W 123°44'510.7
2017-Oct-17 20:30N 49°11' W 123°36'611.3
2017-Oct-17 20:00N 49°09' W 123°28'612.2
2017-Oct-17 19:30N 49°07' W 123°20'713.3
2017-Oct-17 19:00N 49°07' W 123°10'510.9
2017-Oct-17 18:30N 49°09' W 123°02'0 0.0
2017-Oct-17 18:00N 49°09' W 123°02'0 0.0
2017-Oct-17 17:30N 49°09' W 123°02'0 0.0
2017-Oct-17 17:00N 49°09' W 123°02'0 0.0
2017-Oct-17 16:30N 49°09' W 123°02'0 0.0
2017-Oct-17 16:00N 49°09' W 123°02'0 0.0
2017-Oct-17 15:30N 49°09' W 123°02'0 0.0
2017-Oct-17 15:00N 49°09' W 123°02'0 0.9
2017-Oct-17 14:31N 49°08' W 123°03'5 9.2
2017-Oct-17 14:00N 49°07' W 123°09'5 9.3
2017-Oct-17 13:30N 49°07' W 123°16'4 8.9
2017-Oct-17 13:00N 49°03' W 123°19'510.9
2017-Oct-17 12:30N 48°58' W 123°17'611.6
2017-Oct-17 12:00N 48°52' W 123°18'4 8.8
2017-Oct-17 11:30N 48°48' W 123°20'7 2.7
2017-Oct-17 09:04N 48°42' W 123°24'1 8.8
2017-Oct-17 09:00N 48°42' W 123°23'612.8
2017-Oct-17 08:30N 48°48' W 123°21'5 9.8
2017-Oct-17 08:00N 48°52' W 123°18'713.5
2017-Oct-17 07:31N 48°59' W 123°20'713.0
2017-Oct-17 07:00N 49°05' W 123°20'611.0
2017-Oct-17 06:31N 49°07' W 123°12'612.8
2017-Oct-17 06:00N 49°09' W 123°02'0 0.3
2017-Oct-17 05:30N 49°09' W 123°02'0 0.0
2017-Oct-17 05:00N 49°09' W 123°02'0 0.0
2017-Oct-17 04:30N 49°09' W 123°02'0 0.0
2017-Oct-17 04:00N 49°09' W 123°02'2 3.7
2017-Oct-17 03:30N 49°07' W 123°04'510.2
2017-Oct-17 03:01N 49°07' W 123°12'611.0
2017-Oct-17 02:30N 49°06' W 123°20'510.5
2017-Oct-17 02:00N 49°08' W 123°28'510.7
2017-Oct-17 01:30N 49°10' W 123°35'510.5
2017-Oct-17 01:00N 49°12' W 123°43'510.2
2017-Oct-17 00:30N 49°13' W 123°51'4 8.3
2017-Oct-17 00:00N 49°09' W 123°52'0 0.0
2017-Oct-16 23:22N 49°09' W 123°52'0 0.0
2017-Oct-16 22:49N 49°09' W 123°52'0 0.0
2017-Oct-16 22:29N 49°09' W 123°52'2 5.3
2017-Oct-16 22:00N 49°11' W 123°53'5 9.6
2017-Oct-16 21:30N 49°14' W 123°47'611.5
2017-Oct-16 21:00N 49°12' W 123°38'611.3
2017-Oct-16 20:30N 49°10' W 123°30'611.3
2017-Oct-16 20:00N 49°07' W 123°23'611.3
2017-Oct-16 19:30N 49°08' W 123°14'612.9
2017-Oct-16 19:00N 49°08' W 123°04'2 3.7
2017-Oct-16 18:30N 49°09' W 123°02'0 0.0
2017-Oct-16 18:00N 49°09' W 123°02'0 0.0
2017-Oct-16 17:30N 49°09' W 123°02'0 0.1
2017-Oct-16 17:00N 49°09' W 123°02'0 0.0
2017-Oct-16 16:30N 49°09' W 123°02'0 0.0
2017-Oct-16 16:00N 49°09' W 123°02'0 0.0
2017-Oct-16 15:30N 49°09' W 123°02'0 0.0
2017-Oct-16 15:00N 49°09' W 123°02'0 0.0
2017-Oct-16 14:30N 49°09' W 123°02'0 0.0
2017-Oct-16 13:30N 49°09' W 123°02'0 0.0
2017-Oct-16 13:00N 49°09' W 123°02'0 0.0
2017-Oct-16 12:30N 49°09' W 123°02'0 0.0
2017-Oct-16 12:00N 49°09' W 123°02'0 0.0
2017-Oct-16 11:30N 49°09' W 123°02'0 0.0
2017-Oct-16 11:00N 49°09' W 123°02'0 0.0
2017-Oct-16 10:30N 49°09' W 123°02'0 0.0
2017-Oct-16 10:00N 49°09' W 123°02'0 0.0
2017-Oct-16 09:30N 49°09' W 123°02'0 0.0
2017-Oct-16 09:00N 49°09' W 123°02'0 0.0
2017-Oct-16 08:30N 49°09' W 123°02'0 0.0
2017-Oct-16 08:00N 49°09' W 123°02'0 0.0
2017-Oct-16 07:30N 49°09' W 123°02'0 0.0
2017-Oct-16 07:00N 49°09' W 123°02'0 0.0
2017-Oct-16 06:30N 49°09' W 123°02'0 0.0
2017-Oct-16 06:00N 49°09' W 123°02'0 0.0
2017-Oct-16 05:30N 49°09' W 123°02'0 0.0
2017-Oct-16 05:00N 49°09' W 123°02'0 0.0
2017-Oct-16 04:30N 49°09' W 123°02'0 0.0
2017-Oct-16 04:00N 49°09' W 123°02'0 0.0
2017-Oct-16 03:30N 49°09' W 123°02'0 0.0
2017-Oct-16 03:00N 49°09' W 123°02'0 0.0
2017-Oct-16 02:30N 49°09' W 123°02'0 0.0
2017-Oct-16 02:00N 49°09' W 123°02'0 0.0
2017-Oct-16 01:30N 49°09' W 123°02'0 0.0
2017-Oct-16 01:00N 49°09' W 123°02'0 0.0
2017-Oct-16 00:30N 49°09' W 123°02'0 0.0
2017-Oct-16 00:00N 49°09' W 123°02'0 0.0
2017-Oct-15 23:30N 49°09' W 123°02'0 0.0
2017-Oct-15 23:00N 49°09' W 123°02'0 0.0
2017-Oct-15 22:30N 49°09' W 123°02'0 0.0
2017-Oct-15 22:00N 49°09' W 123°02'0 0.0
2017-Oct-15 21:30N 49°09' W 123°02'0 0.0
2017-Oct-15 21:00N 49°09' W 123°02'0 0.0
2017-Oct-15 20:30N 49°09' W 123°02'0 0.0
2017-Oct-15 20:00N 49°09' W 123°02'0 0.0
2017-Oct-15 19:30N 49°09' W 123°02'0 0.0
2017-Oct-15 19:00N 49°09' W 123°02'0 0.0
2017-Oct-15 18:30N 49°09' W 123°02'0 0.0
2017-Oct-15 18:00N 49°09' W 123°02'0 0.0
2017-Oct-15 17:30N 49°09' W 123°02'0 0.0
2017-Oct-15 17:00N 49°09' W 123°02'0 0.0
2017-Oct-15 16:30N 49°09' W 123°02'0 0.0
2017-Oct-15 16:00N 49°09' W 123°02'0 0.0
2017-Oct-15 15:30N 49°09' W 123°02'0 0.0
2017-Oct-15 15:00N 49°09' W 123°02'0 0.0
2017-Oct-15 14:00N 49°09' W 123°02'0 0.0
2017-Oct-15 13:30N 49°09' W 123°02'0 0.0
2017-Oct-15 13:00N 49°09' W 123°02'0 0.0
2017-Oct-15 12:30N 49°09' W 123°02'0 0.0
2017-Oct-15 12:00N 49°09' W 123°02'0 0.0
2017-Oct-15 11:30N 49°09' W 123°02'0 0.0
2017-Oct-15 11:00N 49°09' W 123°02'0 0.0
2017-Oct-15 10:30N 49°09' W 123°02'0 0.0
2017-Oct-15 10:00N 49°09' W 123°02'0 0.0
2017-Oct-15 09:30N 49°09' W 123°02'0 0.0
2017-Oct-15 09:00N 49°09' W 123°02'0 0.0
2017-Oct-15 08:30N 49°09' W 123°02'0 0.0
2017-Oct-15 08:00N 49°09' W 123°02'0 0.0
2017-Oct-15 07:30N 49°09' W 123°02'0 0.0
2017-Oct-15 07:00N 49°09' W 123°02'0 0.0
2017-Oct-15 06:30N 49°09' W 123°02'0 0.0
2017-Oct-15 06:00N 49°09' W 123°02'0 0.0
2017-Oct-15 05:30N 49°09' W 123°02'0 0.0
2017-Oct-15 05:00N 49°09' W 123°02'0 0.0
2017-Oct-15 04:30N 49°09' W 123°02'0 0.0
2017-Oct-15 04:00N 49°09' W 123°02'0 0.0
2017-Oct-15 03:30N 49°09' W 123°02'0 0.0
2017-Oct-15 03:00N 49°09' W 123°02'0 0.0
2017-Oct-15 02:30N 49°09' W 123°02'0 0.0
2017-Oct-15 02:00N 49°09' W 123°02'0 0.0
2017-Oct-15 01:30N 49°09' W 123°02'0 0.0
2017-Oct-15 01:00N 49°09' W 123°02'0 0.0
2017-Oct-15 00:30N 49°09' W 123°02'0 0.0
2017-Oct-15 00:00N 49°09' W 123°02'0 0.0
2017-Oct-14 23:30N 49°09' W 123°02'0 0.0
2017-Oct-14 23:00N 49°09' W 123°02'0 0.0
2017-Oct-14 22:30N 49°09' W 123°02'0 0.0
2017-Oct-14 22:00N 49°09' W 123°02'0 0.0
2017-Oct-14 21:30N 49°09' W 123°02'0 0.0
2017-Oct-14 21:00N 49°09' W 123°02'0 0.0
2017-Oct-14 20:30N 49°09' W 123°02'0 0.0
2017-Oct-14 20:00N 49°09' W 123°02'0 0.0
2017-Oct-14 19:30N 49°09' W 123°02'0 0.0
2017-Oct-14 19:00N 49°09' W 123°02'0 0.0
2017-Oct-14 18:30N 49°09' W 123°02'0 0.0
2017-Oct-14 18:00N 49°09' W 123°02'0 0.0
2017-Oct-14 17:30N 49°09' W 123°02'0 0.0
2017-Oct-14 17:00N 49°09' W 123°02'0 0.0
2017-Oct-14 16:30N 49°09' W 123°02'0 0.0
2017-Oct-14 16:00N 49°09' W 123°02'0 0.1
2017-Oct-14 15:30N 49°09' W 123°02'0 0.0
2017-Oct-14 15:00N 49°09' W 123°02'1 1.5
2017-Oct-14 14:31N 49°08' W 123°03'4 8.6
2017-Oct-14 14:00N 49°07' W 123°09'4 8.1
2017-Oct-14 13:30N 49°08' W 123°15'4 8.2
2017-Oct-14 13:00N 49°05' W 123°20'510.2
2017-Oct-14 12:30N 48°60' W 123°18'510.2
2017-Oct-14 12:00N 48°55' W 123°17'5 9.5
2017-Oct-14 11:30N 48°51' W 123°21'612.3
2017-Oct-14 11:00N 48°44' W 123°21'4 2.1
2017-Oct-14 09:09N 48°41' W 123°24'1 6.2
2017-Oct-14 09:00N 48°42' W 123°23'611.9
2017-Oct-14 08:28N 48°48' W 123°21'5 9.8
2017-Oct-14 08:01N 48°52' W 123°19'713.3
2017-Oct-14 07:30N 48°59' W 123°19'713.1
2017-Oct-14 07:00N 49°05' W 123°20'612.3
2017-Oct-14 06:31N 49°07' W 123°11'611.7
2017-Oct-14 06:00N 49°09' W 123°02'0 0.2
2017-Oct-14 05:30N 49°09' W 123°02'0 0.0
2017-Oct-14 05:00N 49°09' W 123°02'0 0.0
2017-Oct-14 04:30N 49°09' W 123°02'0 0.0
2017-Oct-14 04:00N 49°09' W 123°02'3 5.4
2017-Oct-14 03:30N 49°07' W 123°05'3 6.8
2017-Oct-14 03:00N 49°07' W 123°11'3 6.5
2017-Oct-14 02:30N 49°07' W 123°16'4 7.4
2017-Oct-14 02:00N 49°06' W 123°21'5 9.4
2017-Oct-14 01:30N 49°07' W 123°27'6 9.3
2017-Oct-14 00:50N 49°10' W 123°36'5 9.6
2017-Oct-14 00:20N 49°12' W 123°43'4 9.3
2017-Oct-13 23:57N 49°13' W 123°48'4 8.0
2017-Oct-13 23:30N 49°11' W 123°53'2 4.3
2017-Oct-13 22:58N 49°09' W 123°52'0 0.0
2017-Oct-13 22:27N 49°09' W 123°52'0 0.0
2017-Oct-13 21:43N 49°09' W 123°52'1 5.8
2017-Oct-13 21:31N 49°10' W 123°53'510.4
2017-Oct-13 21:01N 49°13' W 123°47'713.1
2017-Oct-13 20:30N 49°11' W 123°37'713.6
2017-Oct-13 20:00N 49°08' W 123°27'713.2
2017-Oct-13 19:30N 49°06' W 123°18'5 9.9
2017-Oct-13 19:00N 49°07' W 123°10'510.3
2017-Oct-13 18:30N 49°09' W 123°03'1 1.2
2017-Oct-13 18:00N 49°09' W 123°02'0 0.0
2017-Oct-13 17:30N 49°09' W 123°02'0 0.0
2017-Oct-13 17:00N 49°09' W 123°02'0 0.0
2017-Oct-13 16:30N 49°09' W 123°02'0 0.0
2017-Oct-13 16:00N 49°09' W 123°02'0 0.0
2017-Oct-13 15:30N 49°09' W 123°02'0 0.0
2017-Oct-13 15:00N 49°09' W 123°02'0 0.2
2017-Oct-13 14:30N 49°09' W 123°02'5 9.8
2017-Oct-13 14:00N 49°07' W 123°09'5 9.7
2017-Oct-13 13:30N 49°07' W 123°16'5 9.8
2017-Oct-13 13:00N 49°02' W 123°19'612.2
2017-Oct-13 12:30N 48°56' W 123°18'510.4
2017-Oct-13 12:00N 48°52' W 123°21'4 7.1
2017-Oct-13 11:30N 48°48' W 123°21'510.3
2017-Oct-13 11:00N 48°43' W 123°21'3 1.4
2017-Oct-13 09:03N 48°41' W 123°24'1 4.1
2017-Oct-13 08:55N 48°42' W 123°24'511.3
2017-Oct-13 08:29N 48°46' W 123°21'611.7
2017-Oct-13 08:00N 48°52' W 123°19'713.5
2017-Oct-13 07:30N 48°58' W 123°19'713.6
2017-Oct-13 07:01N 49°05' W 123°19'611.5
2017-Oct-13 06:30N 49°07' W 123°11'611.8
2017-Oct-13 06:00N 49°09' W 123°02'0 0.4
2017-Oct-13 05:31N 49°09' W 123°02'0 0.0
2017-Oct-13 05:00N 49°09' W 123°02'0 0.0
2017-Oct-13 04:30N 49°09' W 123°02'0 0.0
2017-Oct-13 04:01N 49°09' W 123°02'0 1.0
2017-Oct-13 03:30N 49°08' W 123°03'5 9.9
2017-Oct-13 03:01N 49°07' W 123°10'4 8.6
2017-Oct-13 02:31N 49°07' W 123°16'5 9.7
2017-Oct-13 02:01N 49°06' W 123°24'611.4
2017-Oct-13 01:31N 49°09' W 123°32'611.2
2017-Oct-13 01:00N 49°11' W 123°40'611.5
2017-Oct-13 00:30N 49°13' W 123°48'4 8.7
2017-Oct-13 00:00N 49°10' W 123°53'1 0.5
2017-Oct-12 21:51N 49°09' W 123°52'3 8.6
2017-Oct-12 21:30N 49°12' W 123°53'712.9
2017-Oct-12 21:00N 49°12' W 123°43'714.1
2017-Oct-12 20:30N 49°10' W 123°33'713.9
2017-Oct-12 20:00N 49°07' W 123°23'612.1
2017-Oct-12 19:30N 49°08' W 123°14'611.4
2017-Oct-12 19:01N 49°07' W 123°05'3 5.4
2017-Oct-12 18:31N 49°09' W 123°02'0 0.0
2017-Oct-12 18:01N 49°09' W 123°02'0 0.0
2017-Oct-12 17:31N 49°09' W 123°02'0 0.0
2017-Oct-12 17:01N 49°09' W 123°02'0 0.0
2017-Oct-12 16:31N 49°09' W 123°02'0 0.0
2017-Oct-12 16:01N 49°09' W 123°02'0 0.0
2017-Oct-12 15:31N 49°09' W 123°02'0 0.0
2017-Oct-12 15:01N 49°09' W 123°02'0 0.7
2017-Oct-12 14:30N 49°09' W 123°03'4 7.4
2017-Oct-12 14:01N 49°07' W 123°07'5 9.5
2017-Oct-12 13:31N 49°08' W 123°14'5 9.2
2017-Oct-12 13:00N 49°04' W 123°20'510.5
2017-Oct-12 12:31N 48°60' W 123°17'611.1
2017-Oct-12 12:00N 48°54' W 123°18'510.1
2017-Oct-12 11:30N 48°49' W 123°20'611.8
2017-Oct-12 11:00N 48°44' W 123°21'3 1.5
2017-Oct-12 09:02N 48°42' W 123°24'0 8.6
2017-Oct-12 09:00N 48°42' W 123°24'611.4
2017-Oct-12 08:30N 48°47' W 123°21'611.2
2017-Oct-12 08:01N 48°52' W 123°18'612.5
2017-Oct-12 07:31N 48°58' W 123°19'611.8
2017-Oct-12 07:00N 49°04' W 123°21'612.6
2017-Oct-12 06:30N 49°08' W 123°12'612.4
2017-Oct-12 06:01N 49°08' W 123°03'1 1.2
2017-Oct-12 05:30N 49°09' W 123°02'0 0.0
2017-Oct-12 05:00N 49°09' W 123°02'0 0.0
2017-Oct-12 04:30N 49°09' W 123°02'0 0.0
2017-Oct-12 04:00N 49°09' W 123°02'2 3.3
2017-Oct-12 03:30N 49°08' W 123°04'4 8.1
2017-Oct-12 03:00N 49°07' W 123°10'4 7.7
2017-Oct-12 02:30N 49°07' W 123°16'4 8.7
2017-Oct-12 02:00N 49°06' W 123°22'510.5
2017-Oct-12 01:30N 49°08' W 123°30'510.1
2017-Oct-12 01:00N 49°10' W 123°37'510.0
2017-Oct-12 00:30N 49°12' W 123°44'5 9.4
2017-Oct-12 00:00N 49°12' W 123°51'4 7.3
2017-Oct-11 23:30N 49°09' W 123°52'0 0.1
2017-Oct-11 22:06N 49°09' W 123°52'0 0.0
2017-Oct-11 21:58N 49°09' W 123°52'4 9.2
2017-Oct-11 21:30N 49°13' W 123°51'612.3
2017-Oct-11 21:00N 49°12' W 123°42'713.1
2017-Oct-11 20:30N 49°10' W 123°32'712.7
2017-Oct-11 20:00N 49°08' W 123°23'511.1
2017-Oct-11 19:30N 49°08' W 123°15'611.2
2017-Oct-11 19:00N 49°07' W 123°06'3 6.6
2017-Oct-11 18:30N 49°09' W 123°02'0 0.0
2017-Oct-11 18:00N 49°09' W 123°02'0 0.0
2017-Oct-11 17:30N 49°09' W 123°02'0 0.0
2017-Oct-11 17:00N 49°09' W 123°02'33 1.9
2017-Oct-11 00:00N 49°09' W 123°52'1 0.4
2017-Oct-10 22:18N 49°09' W 123°52'1 2.7
2017-Oct-10 22:00N 49°09' W 123°53'510.7
2017-Oct-10 21:30N 49°14' W 123°47'612.7
2017-Oct-10 21:00N 49°11' W 123°38'612.5
2017-Oct-10 20:30N 49°09' W 123°29'612.2
2017-Oct-10 20:00N 49°07' W 123°21'611.6
2017-Oct-10 19:30N 49°07' W 123°12'510.1
2017-Oct-10 19:00N 49°07' W 123°04'2 3.7
2017-Oct-10 18:30N 49°09' W 123°02'0 0.0
2017-Oct-10 18:00N 49°09' W 123°02'0 0.0
2017-Oct-10 17:30N 49°09' W 123°02'0 0.0
2017-Oct-10 17:00N 49°09' W 123°02'0 0.1
2017-Oct-10 16:29N 49°09' W 123°02'0 0.0
2017-Oct-10 16:00N 49°09' W 123°02'0 0.0
2017-Oct-10 15:30N 49°09' W 123°02'0 0.0
2017-Oct-10 15:00N 49°09' W 123°02'0 0.0
2017-Oct-10 14:00N 49°09' W 123°02'0 0.0
2017-Oct-10 13:30N 49°09' W 123°02'0 0.0
2017-Oct-10 13:00N 49°09' W 123°02'0 0.0
2017-Oct-10 12:30N 49°09' W 123°02'0 0.0
2017-Oct-10 12:00N 49°09' W 123°02'0 0.0
2017-Oct-10 11:30N 49°09' W 123°02'0 0.0
2017-Oct-10 11:00N 49°09' W 123°02'0 0.0
2017-Oct-10 10:30N 49°09' W 123°02'0 0.0
2017-Oct-10 10:00N 49°09' W 123°02'0 0.0
2017-Oct-10 09:30N 49°09' W 123°02'0 0.0
2017-Oct-10 09:00N 49°09' W 123°02'0 0.0
2017-Oct-10 08:30N 49°09' W 123°02'0 0.0
2017-Oct-10 08:00N 49°09' W 123°02'0 0.0
2017-Oct-10 07:30N 49°09' W 123°02'0 0.0
2017-Oct-10 07:00N 49°09' W 123°02'0 0.0
2017-Oct-10 06:30N 49°09' W 123°02'0 0.0
2017-Oct-10 06:00N 49°09' W 123°02'0 0.0
2017-Oct-10 05:30N 49°09' W 123°02'0 0.0
2017-Oct-10 05:00N 49°09' W 123°02'0 0.0
2017-Oct-10 04:30N 49°09' W 123°02'0 0.0
2017-Oct-10 04:00N 49°09' W 123°02'0 0.0
2017-Oct-10 03:30N 49°09' W 123°02'0 0.0
2017-Oct-10 03:00N 49°09' W 123°02'0 0.0
2017-Oct-10 02:30N 49°09' W 123°02'0 0.0
2017-Oct-10 02:00N 49°09' W 123°02'0 0.0
2017-Oct-10 01:30N 49°09' W 123°02'0 0.0
2017-Oct-10 01:00N 49°09' W 123°02'0 0.0
2017-Oct-10 00:30N 49°09' W 123°02'0 0.0
2017-Oct-10 00:00N 49°09' W 123°02'0 0.0
2017-Oct-09 23:30N 49°09' W 123°02'0 0.0
2017-Oct-09 23:00N 49°09' W 123°02'0 0.0
2017-Oct-09 22:30N 49°09' W 123°02'0 0.0
2017-Oct-09 22:00N 49°09' W 123°02'0 0.0
2017-Oct-09 21:30N 49°09' W 123°02'0 0.0
2017-Oct-09 21:00N 49°09' W 123°02'0 0.0
2017-Oct-09 20:30N 49°09' W 123°02'0 0.0
2017-Oct-09 20:00N 49°09' W 123°02'0 0.0
2017-Oct-09 19:30N 49°09' W 123°02'0 0.0
2017-Oct-09 19:00N 49°09' W 123°02'0 0.0
2017-Oct-09 18:30N 49°09' W 123°02'0 0.0
2017-Oct-09 18:00N 49°09' W 123°02'0 0.0
2017-Oct-09 17:30N 49°09' W 123°02'0 0.0
2017-Oct-09 17:00N 49°09' W 123°02'0 0.0
2017-Oct-09 16:27N 49°09' W 123°02'0 0.0
2017-Oct-09 16:00N 49°09' W 123°02'0 0.0
2017-Oct-09 15:30N 49°09' W 123°02'0 0.0
2017-Oct-09 15:00N 49°09' W 123°02'0 0.0
2017-Oct-09 14:30N 49°09' W 123°02'0 0.0
2017-Oct-09 14:00N 49°09' W 123°02'0 0.0
2017-Oct-09 13:30N 49°09' W 123°02'0 0.0
2017-Oct-09 13:00N 49°09' W 123°02'0 0.0
2017-Oct-09 12:30N 49°09' W 123°02'0 0.0
2017-Oct-09 12:00N 49°09' W 123°02'0 0.0
2017-Oct-09 11:30N 49°09' W 123°02'0 0.0
2017-Oct-09 11:00N 49°09' W 123°02'0 0.0
2017-Oct-09 10:30N 49°09' W 123°02'0 0.0
2017-Oct-09 10:00N 49°09' W 123°02'0 0.0
2017-Oct-09 09:30N 49°09' W 123°02'0 0.0
2017-Oct-09 09:00N 49°09' W 123°02'0 0.0
2017-Oct-09 08:30N 49°09' W 123°02'0 0.0
2017-Oct-09 08:00N 49°09' W 123°02'0 0.0
2017-Oct-09 07:30N 49°09' W 123°02'0 0.0
2017-Oct-09 07:00N 49°09' W 123°02'0 0.0
2017-Oct-09 06:30N 49°09' W 123°02'0 0.0
2017-Oct-09 06:00N 49°09' W 123°02'0 0.0
2017-Oct-09 05:30N 49°09' W 123°02'0 0.0
2017-Oct-09 05:00N 49°09' W 123°02'0 0.0
2017-Oct-09 04:30N 49°09' W 123°02'0 0.0
2017-Oct-09 04:00N 49°09' W 123°02'0 0.0
2017-Oct-09 03:30N 49°09' W 123°02'0 0.0
2017-Oct-09 03:00N 49°09' W 123°02'0 0.0
2017-Oct-09 02:30N 49°09' W 123°02'0 0.0
2017-Oct-09 02:00N 49°09' W 123°02'0 0.0
2017-Oct-09 01:30N 49°09' W 123°02'0 0.0
2017-Oct-09 01:00N 49°09' W 123°02'0 0.0
2017-Oct-09 00:30N 49°09' W 123°02'0 0.0
2017-Oct-09 00:00N 49°09' W 123°02'0 0.0
2017-Oct-08 23:30N 49°09' W 123°02'0 0.0
2017-Oct-08 23:00N 49°09' W 123°02'0 0.0
2017-Oct-08 22:30N 49°09' W 123°02'0 0.0
2017-Oct-08 22:00N 49°09' W 123°02'0 0.0
2017-Oct-08 21:30N 49°09' W 123°02'0 0.0
2017-Oct-08 21:00N 49°09' W 123°02'0 0.0
2017-Oct-08 20:30N 49°09' W 123°02'  

Dump ship's entire track history